createdAt,value
2018-11-27T00:00:20.879Z,0.20
2018-11-27T00:02:48.962Z,0.10
2018-11-27T00:05:16.637Z,0.20
2018-11-27T00:07:44.422Z,0.10
2018-11-27T00:10:12.168Z,0.10
2018-11-27T00:12:40.139Z,0.10
2018-11-27T00:15:09.824Z,0.10
2018-11-27T00:17:38.809Z,0.10
2018-11-27T00:20:07.898Z,0.10
2018-11-27T00:22:35.596Z,0.00
2018-11-27T00:25:03.554Z,0.00
2018-11-27T00:27:31.264Z,0.00
2018-11-27T00:29:59.047Z,0.00
2018-11-27T00:32:26.782Z,0.00
2018-11-27T00:34:54.599Z,0.00
2018-11-27T00:37:22.323Z,0.00
2018-11-27T00:39:50.288Z,0.00
2018-11-27T00:42:18.029Z,-0.10
2018-11-27T00:44:45.826Z,0.00
2018-11-27T00:47:13.609Z,0.00
2018-11-27T00:49:41.350Z,-0.10
2018-11-27T00:52:09.102Z,-0.10
2018-11-27T00:54:36.909Z,0.00
2018-11-27T00:57:04.649Z,-0.10
2018-11-27T00:59:32.434Z,-0.10
2018-11-27T01:02:00.130Z,-0.10
2018-11-27T01:04:27.989Z,-0.10
2018-11-27T01:06:55.753Z,-0.10
2018-11-27T01:09:23.510Z,-0.10
2018-11-27T01:11:51.265Z,-0.10
2018-11-27T01:14:19.034Z,-0.10
2018-11-27T01:16:46.833Z,-0.10
2018-11-27T01:19:14.650Z,-0.10
2018-11-27T01:21:42.336Z,-0.10
2018-11-27T01:24:10.813Z,-0.10
2018-11-27T01:26:39.339Z,-0.10
2018-11-27T01:29:07.808Z,-0.20
2018-11-27T01:31:36.399Z,-0.20
2018-11-27T01:34:04.953Z,-0.20
2018-11-27T01:36:33.477Z,-0.20
2018-11-27T01:39:01.960Z,-0.20
2018-11-27T01:41:30.606Z,-0.20
2018-11-27T01:43:59.182Z,-0.20
2018-11-27T01:46:27.647Z,-0.20
2018-11-27T01:48:56.196Z,-0.20
2018-11-27T01:51:24.802Z,-0.20
2018-11-27T01:53:53.469Z,-0.30
2018-11-27T01:56:21.990Z,-0.30
2018-11-27T01:58:50.516Z,-0.30
2018-11-27T02:01:18.971Z,-0.30
2018-11-27T02:03:47.511Z,-0.30
2018-11-27T02:06:16.042Z,-0.40
2018-11-27T02:08:44.642Z,-0.40
2018-11-27T02:11:13.142Z,-0.40
2018-11-27T02:13:41.656Z,-0.40
2018-11-27T02:16:10.231Z,-0.40
2018-11-27T02:18:41.977Z,-0.40
2018-11-27T02:21:10.602Z,-0.40
2018-11-27T02:23:39.143Z,-0.50
2018-11-27T02:26:07.656Z,-0.50
2018-11-27T02:28:36.181Z,-0.50
2018-11-27T02:31:04.822Z,-0.50
2018-11-27T02:33:33.281Z,-0.50
2018-11-27T02:36:01.732Z,-0.50
2018-11-27T02:38:30.268Z,-0.50
2018-11-27T02:40:59.927Z,-0.50
2018-11-27T02:43:28.468Z,-0.50
2018-11-27T02:45:56.924Z,-0.50
2018-11-27T02:48:25.419Z,-0.50
2018-11-27T02:50:53.955Z,-0.50
2018-11-27T02:53:22.462Z,-0.50
2018-11-27T02:55:51.099Z,-0.50
2018-11-27T02:58:19.596Z,-0.50
2018-11-27T03:00:48.126Z,-0.60
2018-11-27T03:03:16.570Z,-0.50
2018-11-27T03:05:45.180Z,-0.50
2018-11-27T03:08:13.621Z,-0.50
2018-11-27T03:10:42.105Z,-0.50
2018-11-27T03:13:10.573Z,-0.50
2018-11-27T03:15:39.065Z,-0.60
2018-11-27T03:18:07.641Z,-0.60
2018-11-27T03:20:37.646Z,-0.60
2018-11-27T03:23:06.553Z,-0.60
2018-11-27T03:25:35.845Z,-0.60
2018-11-27T03:28:04.316Z,-0.60
2018-11-27T03:30:32.961Z,-0.60
2018-11-27T03:33:01.481Z,-0.60
2018-11-27T03:35:30.050Z,-0.60
2018-11-27T03:37:58.565Z,-0.60
2018-11-27T03:40:28.389Z,-0.60
2018-11-27T03:42:56.956Z,-0.60
2018-11-27T03:45:25.787Z,-0.60
2018-11-27T03:47:54.298Z,-0.60
2018-11-27T03:50:27.935Z,-0.60
2018-11-27T03:52:56.486Z,-0.60
2018-11-27T03:55:28.169Z,-0.60
2018-11-27T03:57:56.718Z,-0.60
2018-11-27T04:00:27.317Z,-0.60
2018-11-27T04:03:03.629Z,-0.60
2018-11-27T04:05:32.233Z,-0.60
2018-11-27T04:08:00.755Z,-0.70
2018-11-27T04:10:29.335Z,-0.70
2018-11-27T04:12:57.988Z,-0.70
2018-11-27T04:15:26.566Z,-0.70
2018-11-27T04:17:55.097Z,-0.70
2018-11-27T04:20:23.575Z,-0.70
2018-11-27T04:22:52.218Z,-0.70
2018-11-27T04:25:20.724Z,-0.70
2018-11-27T04:27:49.234Z,-0.70
2018-11-27T04:30:21.327Z,-0.70
2018-11-27T04:32:49.836Z,-0.70
2018-11-27T04:35:20.393Z,-0.70
2018-11-27T04:37:49.233Z,-0.80
2018-11-27T04:40:20.058Z,-0.70
2018-11-27T04:42:48.533Z,-0.70
2018-11-27T04:45:21.695Z,-0.70
2018-11-27T04:47:50.260Z,-0.70
2018-11-27T04:50:19.280Z,-0.70
2018-11-27T04:52:47.817Z,-0.70
2018-11-27T04:55:17.413Z,-0.70
2018-11-27T04:57:47.191Z,-0.80
2018-11-27T05:00:26.643Z,-0.80
2018-11-27T05:02:55.313Z,-0.80
2018-11-27T05:05:23.915Z,-0.80
2018-11-27T05:07:52.584Z,-0.80
2018-11-27T05:10:22.398Z,-0.90
2018-11-27T05:12:51.145Z,-0.90
2018-11-27T05:15:21.555Z,-0.80
2018-11-27T05:17:54.550Z,-0.90
2018-11-27T05:20:23.135Z,-0.90
2018-11-27T05:22:51.740Z,-0.90
2018-11-27T05:25:20.616Z,-0.90
2018-11-27T05:27:50.350Z,-0.90
2018-11-27T05:30:21.956Z,-0.90
2018-11-27T05:32:50.403Z,-0.90
2018-11-27T05:35:27.733Z,-0.90
2018-11-27T05:37:56.380Z,-0.90
2018-11-27T05:40:25.563Z,-0.90
2018-11-27T05:42:58.286Z,-0.90
2018-11-27T05:45:27.123Z,-0.90
2018-11-27T05:47:55.633Z,-0.90
2018-11-27T05:50:24.403Z,-1.00
2018-11-27T05:52:52.889Z,-0.90
2018-11-27T05:55:21.451Z,-0.90
2018-11-27T05:57:52.537Z,-1.00
2018-11-27T06:00:25.337Z,-1.00
2018-11-27T06:02:56.161Z,-1.00
2018-11-27T06:05:24.892Z,-1.00
2018-11-27T06:07:53.370Z,-1.10
2018-11-27T06:10:23.023Z,-1.10
2018-11-27T06:12:51.573Z,-1.10
2018-11-27T06:15:21.287Z,-1.10
2018-11-27T06:17:52.887Z,-1.10
2018-11-27T06:20:22.193Z,-1.20
2018-11-27T06:22:50.926Z,-1.20
2018-11-27T06:25:20.688Z,-1.20
2018-11-27T06:27:51.414Z,-1.20
2018-11-27T06:30:22.043Z,-1.30
2018-11-27T06:32:50.615Z,-1.30
2018-11-27T06:35:22.514Z,-1.30
2018-11-27T06:37:51.300Z,-1.40
2018-11-27T06:40:20.935Z,-1.40
2018-11-27T06:42:49.514Z,-1.40
2018-11-27T06:45:18.991Z,-1.40
2018-11-27T06:47:48.636Z,-1.50
2018-11-27T06:50:19.182Z,-1.50
2018-11-27T06:52:47.726Z,-1.60
2018-11-27T06:55:17.468Z,-1.60
2018-11-27T06:57:45.972Z,-1.60
2018-11-27T07:00:16.705Z,-1.60
2018-11-27T07:02:45.317Z,-1.60
2018-11-27T07:05:14.409Z,-1.60
2018-11-27T07:07:43.156Z,-1.60
2018-11-27T07:10:18.914Z,-1.60
2018-11-27T07:12:48.302Z,-1.60
2018-11-27T07:15:19.109Z,-1.50
2018-11-27T07:17:47.615Z,-1.50
2018-11-27T07:20:16.073Z,-1.40
2018-11-27T07:22:44.541Z,-1.40
2018-11-27T07:25:14.220Z,-1.40
2018-11-27T07:27:45.922Z,-1.40
2018-11-27T07:30:18.746Z,-1.30
2018-11-27T07:32:47.380Z,-1.30
2018-11-27T07:35:16.769Z,-1.30
2018-11-27T07:37:45.362Z,-1.30
2018-11-27T07:40:17.882Z,-1.30
2018-11-27T07:42:46.728Z,-1.30
2018-11-27T07:45:18.201Z,-1.20
2018-11-27T07:47:46.796Z,-1.20
2018-11-27T07:50:16.144Z,-1.20
2018-11-27T07:52:44.769Z,-1.20
2018-11-27T07:55:15.305Z,-1.10
2018-11-27T07:57:44.006Z,-1.10
2018-11-27T08:00:13.828Z,-1.10
2018-11-27T08:02:43.058Z,-1.10
2018-11-27T08:05:13.028Z,-1.10
2018-11-27T08:07:42.679Z,-1.10
2018-11-27T08:10:14.605Z,-1.10
2018-11-27T08:12:43.151Z,-1.10
2018-11-27T08:15:13.130Z,-1.10
2018-11-27T08:17:42.083Z,-1.10
2018-11-27T08:20:23.696Z,-1.10
2018-11-27T08:22:52.226Z,-1.10
2018-11-27T08:25:20.758Z,-1.00
2018-11-27T08:27:49.537Z,-1.10
2018-11-27T08:30:20.102Z,-1.10
2018-11-27T08:32:48.720Z,-1.10
2018-11-27T08:35:32.101Z,-1.00
2018-11-27T08:38:01.364Z,-1.00
2018-11-27T08:40:32.394Z,-1.00
2018-11-27T08:43:00.922Z,-1.10
2018-11-27T08:45:29.469Z,-1.00
2018-11-27T08:47:58.097Z,-1.00
2018-11-27T08:50:27.518Z,-1.10
2018-11-27T08:52:59.395Z,-1.10
2018-11-27T08:55:38.048Z,-1.10
2018-11-27T08:58:09.730Z,-1.10
2018-11-27T09:00:38.353Z,-1.10
2018-11-27T09:03:06.913Z,-1.00
2018-11-27T09:05:35.512Z,-1.00
2018-11-27T09:08:04.477Z,-0.90
2018-11-27T09:10:33.623Z,-0.90
2018-11-27T09:13:02.215Z,-0.90
2018-11-27T09:15:30.796Z,-0.90
2018-11-27T09:18:17.927Z,-0.90
2018-11-27T09:20:46.521Z,-0.90
2018-11-27T09:23:15.015Z,-0.90
2018-11-27T09:25:43.565Z,-0.90
2018-11-27T09:28:12.100Z,-0.90
2018-11-27T09:30:40.660Z,-1.00
2018-11-27T09:33:09.360Z,-1.00
2018-11-27T09:35:38.168Z,-1.00
2018-11-27T09:38:07.848Z,-1.00
2018-11-27T09:40:36.705Z,-1.00
2018-11-27T09:43:05.657Z,-1.00
2018-11-27T09:45:34.317Z,-1.00
2018-11-27T09:48:02.872Z,-1.10
2018-11-27T09:50:31.375Z,-1.00
2018-11-27T09:52:59.052Z,-1.10
2018-11-27T09:55:29.665Z,-1.10
2018-11-27T09:57:59.357Z,-1.10
2018-11-27T10:00:30.302Z,-1.10
2018-11-27T10:03:00.203Z,-1.10
2018-11-27T10:05:28.760Z,-1.10
2018-11-27T10:07:57.324Z,-1.10
2018-11-27T10:10:26.297Z,-1.10
2018-11-27T10:12:54.806Z,-1.10
2018-11-27T10:15:30.010Z,-1.10
2018-11-27T10:18:01.673Z,-1.10
2018-11-27T10:20:38.326Z,-1.10
2018-11-27T10:23:09.344Z,-1.10
2018-11-27T10:25:37.847Z,-1.10
2018-11-27T10:28:10.419Z,-1.20
2018-11-27T10:30:38.906Z,-1.20
2018-11-27T10:33:11.337Z,-1.20
2018-11-27T10:35:47.586Z,-1.20
2018-11-27T10:38:16.135Z,-1.20
2018-11-27T10:40:45.275Z,-1.30
2018-11-27T10:43:19.502Z,-1.20
2018-11-27T10:45:42.524Z,-1.20
2018-11-27T10:48:11.089Z,-1.20
2018-11-27T10:50:39.664Z,-1.30
2018-11-27T10:53:09.712Z,-1.20
2018-11-27T10:55:38.168Z,-1.20
2018-11-27T10:58:07.086Z,-1.20
2018-11-27T11:00:42.709Z,-1.20
2018-11-27T11:03:41.699Z,-1.30
2018-11-27T11:06:10.678Z,-1.30
2018-11-27T11:08:39.284Z,-1.30
2018-11-27T11:11:08.705Z,-1.30
2018-11-27T11:13:37.253Z,-1.30
2018-11-27T11:16:06.868Z,-1.30
2018-11-27T11:18:35.435Z,-1.30
2018-11-27T11:21:03.968Z,-1.30
2018-11-27T11:23:33.845Z,-1.30
2018-11-27T11:26:02.368Z,-1.40
2018-11-27T11:28:31.808Z,-1.40
2018-11-27T11:31:00.575Z,-1.40
2018-11-27T11:33:29.142Z,-1.40
2018-11-27T11:35:57.726Z,-1.40
2018-11-27T11:38:26.267Z,-1.50
2018-11-27T11:40:54.853Z,-1.50
2018-11-27T11:43:23.467Z,-1.40
2018-11-27T11:45:52.051Z,-1.40
2018-11-27T11:48:20.620Z,-1.40
2018-11-27T11:50:50.060Z,-1.40
2018-11-27T11:53:19.226Z,-1.40
2018-11-27T11:55:48.516Z,-1.40
2018-11-27T11:58:17.443Z,-1.40
2018-11-27T12:00:48.668Z,-1.40
2018-11-27T12:03:17.223Z,-1.40
2018-11-27T12:05:45.749Z,-1.40
2018-11-27T12:08:14.392Z,-1.40
2018-11-27T12:10:42.880Z,-1.50
2018-11-27T12:13:12.098Z,-1.50
2018-11-27T12:15:39.952Z,-1.50
2018-11-27T12:18:09.442Z,-1.50
2018-11-27T12:20:38.605Z,-1.50
2018-11-27T12:23:09.659Z,-1.50
2018-11-27T12:25:37.697Z,-1.60
2018-11-27T12:28:07.514Z,-1.60
2018-11-27T12:30:36.062Z,-1.60
2018-11-27T12:33:04.820Z,-1.60
2018-11-27T12:35:33.412Z,-1.60
2018-11-27T12:38:01.910Z,-1.60
2018-11-27T12:40:30.423Z,-1.60
2018-11-27T12:42:58.991Z,-1.60
2018-11-27T12:45:29.482Z,-1.60
2018-11-27T12:47:59.154Z,-1.60
2018-11-27T12:50:37.096Z,-1.60
2018-11-27T12:53:06.742Z,-1.60
2018-11-27T12:55:36.013Z,-1.60
2018-11-27T12:58:05.197Z,-1.60
2018-11-27T13:00:33.808Z,-1.60
2018-11-27T13:03:02.323Z,-1.60
2018-11-27T13:05:40.095Z,-1.60
2018-11-27T13:08:14.091Z,-1.60
2018-11-27T13:10:42.620Z,-1.60
2018-11-27T13:13:11.127Z,-1.60
2018-11-27T13:15:40.540Z,-1.60
2018-11-27T13:18:09.974Z,-1.60
2018-11-27T13:20:39.195Z,-1.60
2018-11-27T13:23:08.338Z,-1.60
2018-11-27T13:25:37.622Z,-1.60
2018-11-27T13:28:07.851Z,-1.60
2018-11-27T13:30:57.089Z,-1.60
2018-11-27T13:33:29.913Z,-1.60
2018-11-27T13:35:58.898Z,-1.60
2018-11-27T13:38:27.841Z,-1.60
2018-11-27T13:41:00.164Z,-1.60
2018-11-27T13:43:30.964Z,-1.60
2018-11-27T13:46:01.367Z,-1.60
2018-11-27T13:48:30.409Z,-1.60
2018-11-27T13:50:59.567Z,-1.60
2018-11-27T13:53:28.746Z,-1.60
2018-11-27T13:55:57.609Z,-1.60
2018-11-27T13:58:26.758Z,-1.60
2018-11-27T14:00:55.821Z,-1.60
2018-11-27T14:03:25.091Z,-1.60
2018-11-27T14:05:54.258Z,-1.60
2018-11-27T14:08:23.303Z,-1.60
2018-11-27T14:10:52.072Z,-1.60
2018-11-27T14:13:20.613Z,-1.60
2018-11-27T14:15:49.211Z,-1.60
2018-11-27T14:18:17.725Z,-1.60
2018-11-27T14:20:46.282Z,-1.70
2018-11-27T14:23:14.819Z,-1.70
2018-11-27T14:25:43.378Z,-1.70
2018-11-27T14:28:13.796Z,-1.70
2018-11-27T14:30:42.397Z,-1.80
2018-11-27T14:33:11.693Z,-1.80
2018-11-27T14:35:40.399Z,-1.80
2018-11-27T14:38:09.160Z,-1.90
2018-11-27T14:40:37.835Z,-1.90
2018-11-27T14:43:06.511Z,-2.00
2018-11-27T14:45:35.013Z,-2.00
2018-11-27T14:48:03.613Z,-2.00
2018-11-27T14:50:32.103Z,-2.00
2018-11-27T14:53:00.866Z,-2.00
2018-11-27T14:55:31.063Z,-2.10
2018-11-27T14:57:59.646Z,-2.10
2018-11-27T15:00:28.518Z,-2.10
2018-11-27T15:02:57.076Z,-2.10
2018-11-27T15:05:31.899Z,-2.10
2018-11-27T15:08:00.577Z,-2.10
2018-11-27T15:10:29.096Z,-2.10
2018-11-27T15:12:57.634Z,-2.10
2018-11-27T15:15:26.259Z,-2.10
2018-11-27T15:17:54.792Z,-2.20
2018-11-27T15:20:24.709Z,-2.10
2018-11-27T15:22:53.302Z,-2.20
2018-11-27T15:25:23.153Z,-2.10
2018-11-27T15:27:51.769Z,-2.20
2018-11-27T15:30:25.784Z,-2.20
2018-11-27T15:32:55.884Z,-2.20
2018-11-27T15:35:25.492Z,-2.20
2018-11-27T15:37:57.421Z,-2.20
2018-11-27T15:40:27.276Z,-2.20
2018-11-27T15:42:55.920Z,-2.20
2018-11-27T15:45:26.497Z,-2.20
2018-11-27T15:47:55.003Z,-2.20
2018-11-27T15:50:23.500Z,-2.20
2018-11-27T15:52:52.070Z,-2.20
2018-11-27T15:55:26.953Z,-2.20
2018-11-27T15:57:57.235Z,-2.30
2018-11-27T16:00:25.980Z,-2.30
2018-11-27T16:02:54.553Z,-2.30
2018-11-27T16:05:23.043Z,-2.40
2018-11-27T16:07:51.519Z,-2.40
2018-11-27T16:10:20.240Z,-2.40
2018-11-27T16:12:48.780Z,-2.40
2018-11-27T16:15:18.829Z,-2.40
2018-11-27T16:17:48.331Z,-2.40
2018-11-27T16:20:18.714Z,-2.40
2018-11-27T16:22:49.401Z,-2.40
2018-11-27T16:25:20.930Z,-2.50
2018-11-27T16:27:49.461Z,-2.50
2018-11-27T16:30:20.289Z,-2.50
2018-11-27T16:32:49.045Z,-2.50
2018-11-27T16:35:17.646Z,-2.50
2018-11-27T16:37:48.873Z,-2.50
2018-11-27T16:40:19.558Z,-2.50
2018-11-27T16:42:48.065Z,-2.50
2018-11-27T16:45:18.924Z,-2.50
2018-11-27T16:47:47.646Z,-2.50
2018-11-27T16:50:16.848Z,-2.50
2018-11-27T16:52:45.659Z,-2.50
2018-11-27T16:55:15.384Z,-2.50
2018-11-27T16:57:44.013Z,-2.50
2018-11-27T17:00:20.896Z,-2.50
2018-11-27T17:02:50.567Z,-2.50
2018-11-27T17:05:19.304Z,-2.50
2018-11-27T17:07:47.806Z,-2.50
2018-11-27T17:10:17.332Z,-2.50
2018-11-27T17:12:46.764Z,-2.50
2018-11-27T17:15:16.890Z,-2.60
2018-11-27T17:17:45.411Z,-2.60
2018-11-27T17:20:22.246Z,-2.60
2018-11-27T17:22:50.923Z,-2.60
2018-11-27T17:25:19.975Z,-2.60
2018-11-27T17:27:48.628Z,-2.70
2018-11-27T17:30:19.556Z,-2.70
2018-11-27T17:32:48.220Z,-2.70
2018-11-27T17:35:16.963Z,-2.70
2018-11-27T17:37:46.210Z,-2.70
2018-11-27T17:40:16.068Z,-2.70
2018-11-27T17:42:45.987Z,-2.70
2018-11-27T17:45:15.668Z,-2.70
2018-11-27T17:47:45.233Z,-2.70
2018-11-27T17:50:15.272Z,-2.70
2018-11-27T17:52:43.958Z,-2.70
2018-11-27T17:55:13.954Z,-2.80
2018-11-27T17:57:42.519Z,-2.70
2018-11-27T18:00:17.668Z,-2.80
2018-11-27T18:02:48.080Z,-2.80
2018-11-27T18:05:34.941Z,-2.80
2018-11-27T18:08:03.554Z,-2.80
2018-11-27T18:10:32.118Z,-2.80
2018-11-27T18:13:00.636Z,-2.90
2018-11-27T18:15:29.303Z,-2.90
2018-11-27T18:17:57.884Z,-2.80
2018-11-27T18:20:26.476Z,-2.90
2018-11-27T18:22:55.071Z,-2.90
2018-11-27T18:25:23.604Z,-2.90
2018-11-27T18:27:52.133Z,-2.90
2018-11-27T18:30:22.088Z,-2.90
2018-11-27T18:32:50.798Z,-2.90
2018-11-27T18:35:22.794Z,-2.90
2018-11-27T18:37:51.855Z,-2.90
2018-11-27T18:40:20.897Z,-3.00
2018-11-27T18:42:49.550Z,-3.00
2018-11-27T18:45:22.503Z,-3.10
2018-11-27T18:47:51.086Z,-3.10
2018-11-27T18:50:22.231Z,-3.10
2018-11-27T18:52:51.223Z,-3.10
2018-11-27T18:55:21.075Z,-3.10
2018-11-27T18:57:50.283Z,-3.10
2018-11-27T19:00:24.983Z,-3.10
2018-11-27T19:02:54.313Z,-3.10
2018-11-27T19:05:24.964Z,-3.10
2018-11-27T19:07:53.778Z,-3.10
2018-11-27T19:10:31.338Z,-3.20
2018-11-27T19:13:00.128Z,-3.20
2018-11-27T19:15:30.387Z,-3.20
2018-11-27T19:18:02.261Z,-3.20
2018-11-27T19:20:30.958Z,-3.20
2018-11-27T19:22:59.620Z,-3.30
2018-11-27T19:25:28.249Z,-3.30
2018-11-27T19:27:57.056Z,-3.30
2018-11-27T19:30:25.707Z,-3.30
2018-11-27T19:32:54.245Z,-3.40
2018-11-27T19:35:25.492Z,-3.40
2018-11-27T19:37:52.665Z,-3.50
2018-11-27T19:40:21.682Z,-3.50
2018-11-27T19:42:50.221Z,-3.60
2018-11-27T19:45:24.493Z,-3.60
2018-11-27T19:47:55.607Z,-3.70
2018-11-27T19:50:24.237Z,-3.80
2018-11-27T19:52:57.078Z,-3.90
2018-11-27T19:55:25.657Z,-4.00
2018-11-27T19:57:54.446Z,-4.10
2018-11-27T20:00:25.446Z,-4.10
2018-11-27T20:02:55.592Z,-4.20
2018-11-27T20:05:25.675Z,-4.30
2018-11-27T20:07:54.292Z,-4.40
2018-11-27T20:10:22.934Z,-4.50
2018-11-27T20:12:51.681Z,-4.50
2018-11-27T20:15:25.121Z,-4.60
2018-11-27T20:17:54.242Z,-4.60
2018-11-27T20:20:23.978Z,-4.70
2018-11-27T20:22:54.923Z,-4.70
2018-11-27T20:25:24.718Z,-4.70
2018-11-27T20:27:53.661Z,-4.80
2018-11-27T20:30:26.716Z,-4.90
2018-11-27T20:32:57.160Z,-4.90
2018-11-27T20:35:26.238Z,-5.00
2018-11-27T20:37:55.803Z,-5.00
2018-11-27T20:40:24.718Z,-5.10
2018-11-27T20:42:53.299Z,-5.20
2018-11-27T20:45:23.207Z,-5.20
2018-11-27T20:50:22.531Z,-5.30
2018-11-27T20:52:51.062Z,-5.40
2018-11-27T20:55:20.157Z,-5.40
2018-11-27T20:57:56.886Z,-5.50
2018-11-27T21:00:30.288Z,-5.50
2018-11-27T21:03:00.999Z,-5.50
2018-11-27T21:05:29.537Z,-5.60
2018-11-27T21:08:00.034Z,-5.60
2018-11-27T21:10:28.739Z,-5.70
2018-11-27T21:12:57.371Z,-5.80
2018-11-27T21:15:43.256Z,-5.80
2018-11-27T21:18:35.818Z,-5.90
2018-11-27T21:24:26.072Z,-6.00
2018-11-27T21:34:40.355Z,-6.10
2018-11-27T21:40:38.570Z,-6.20
2018-11-27T21:43:22.085Z,-6.30
2018-11-27T21:46:13.184Z,-6.30
2018-11-27T21:48:59.654Z,-6.30
2018-11-27T21:51:47.846Z,-6.30
2018-11-27T21:54:37.212Z,-6.30
2018-11-27T21:57:23.359Z,-6.30
2018-11-27T22:03:23.546Z,-6.30
2018-11-27T22:05:52.064Z,-6.30
2018-11-27T22:08:22.555Z,-6.30
2018-11-27T22:10:51.085Z,-6.30
2018-11-27T22:13:19.606Z,-6.40
2018-11-27T22:15:48.135Z,-6.30
2018-11-27T22:18:16.713Z,-6.30
2018-11-27T22:20:45.191Z,-6.40
2018-11-27T22:23:12.911Z,-6.40
2018-11-27T22:25:43.545Z,-6.40
2018-11-27T22:28:11.979Z,-6.40
2018-11-27T22:30:40.456Z,-6.40
2018-11-27T22:33:09.240Z,-6.40
2018-11-27T22:35:37.961Z,-6.40
2018-11-27T22:38:07.502Z,-6.40
2018-11-27T22:40:36.208Z,-6.30
2018-11-27T22:43:06.744Z,-6.30
2018-11-27T22:45:40.306Z,-6.30
2018-11-27T22:48:10.472Z,-6.30
2018-11-27T22:50:39.094Z,-6.30
2018-11-27T22:53:08.691Z,-6.30
2018-11-27T22:55:37.160Z,-6.20
2018-11-27T22:58:07.007Z,-6.20
2018-11-27T23:03:14.253Z,-6.20
2018-11-27T23:05:42.734Z,-6.20
2018-11-27T23:08:11.267Z,-6.20
2018-11-27T23:10:41.230Z,-6.20
2018-11-27T23:13:09.948Z,-6.20
2018-11-27T23:15:38.463Z,-6.20
2018-11-27T23:18:10.869Z,-6.10
2018-11-27T23:20:39.369Z,-6.00
2018-11-27T23:23:07.916Z,-5.90
2018-11-27T23:25:36.473Z,-5.70
2018-11-27T23:28:07.113Z,-5.60
2018-11-27T23:30:35.664Z,-5.50
2018-11-27T23:33:04.139Z,-5.40
2018-11-27T23:35:33.665Z,-5.30
2018-11-27T23:38:06.366Z,-5.30
2018-11-27T23:40:34.869Z,-5.30
2018-11-27T23:43:03.849Z,-5.20
2018-11-27T23:45:31.883Z,-5.20
2018-11-27T23:48:00.434Z,-5.30
2018-11-27T23:50:28.931Z,-5.40
2018-11-27T23:52:57.382Z,-5.40
2018-11-27T23:55:25.948Z,-5.50
2018-11-27T23:57:54.431Z,-5.60
